createdAt,value
2023-04-08T00:01:47.878Z,7.33
2023-04-08T00:04:15.680Z,7.68
2023-04-08T00:06:44.347Z,7.60
2023-04-08T00:09:12.762Z,7.66
2023-04-08T00:11:41.212Z,7.57
2023-04-08T00:14:07.941Z,7.58
2023-04-08T00:16:35.812Z,7.55
2023-04-08T00:19:04.090Z,7.44
2023-04-08T00:21:32.620Z,7.43
2023-04-08T00:23:59.285Z,7.07
2023-04-08T00:26:26.554Z,7.34
2023-04-08T00:28:54.046Z,7.30
2023-04-08T00:31:21.868Z,7.28
2023-04-08T00:33:53.632Z,7.29
2023-04-08T00:36:20.186Z,7.27
2023-04-08T00:38:47.481Z,7.19
2023-04-08T00:41:14.341Z,7.15
2023-04-08T00:43:42.311Z,7.14
2023-04-08T00:46:12.386Z,6.92
2023-04-08T00:48:40.525Z,6.86
2023-04-08T00:51:11.466Z,6.79
2023-04-08T00:53:38.834Z,6.59
2023-04-08T00:56:05.631Z,6.91
2023-04-08T00:58:32.905Z,7.06
2023-04-08T01:01:08.896Z,6.98
2023-04-08T01:03:36.397Z,6.92
2023-04-08T01:06:47.266Z,6.79
2023-04-08T01:09:15.509Z,6.71
2023-04-08T01:11:44.960Z,6.71
2023-04-08T01:14:16.670Z,6.68
2023-04-08T01:16:47.572Z,6.56
2023-04-08T01:19:27.102Z,6.52
2023-04-08T01:22:01.645Z,6.43
2023-04-08T01:24:31.186Z,6.20
2023-04-08T01:26:59.303Z,6.46
2023-04-08T01:29:30.252Z,6.41
2023-04-08T01:32:07.954Z,6.40
2023-04-08T01:34:37.819Z,6.37
2023-04-08T01:37:06.471Z,6.39
2023-04-08T01:39:35.689Z,6.34
2023-04-08T01:42:04.881Z,6.33
2023-04-08T01:44:33.675Z,6.27
2023-04-08T01:47:15.729Z,6.19
2023-04-08T01:50:01.919Z,6.07
2023-04-08T01:52:34.949Z,6.08
2023-04-08T01:55:03.235Z,6.04
2023-04-08T01:57:33.909Z,6.09
2023-04-08T02:00:03.247Z,6.04
2023-04-08T02:02:37.090Z,6.00
2023-04-08T02:05:05.471Z,5.94
2023-04-08T02:07:32.441Z,5.89
2023-04-08T02:09:59.015Z,5.90
2023-04-08T02:12:28.315Z,5.72
2023-04-08T02:14:55.606Z,5.78
2023-04-08T02:17:37.387Z,5.77
2023-04-08T02:20:14.144Z,5.73
2023-04-08T02:22:46.266Z,5.61
2023-04-08T02:25:17.396Z,5.60
2023-04-08T02:27:46.215Z,5.66
2023-04-08T02:30:18.491Z,5.60
2023-04-08T02:32:48.768Z,5.73
2023-04-08T02:35:20.273Z,5.50
2023-04-08T02:37:54.555Z,5.14
2023-04-08T02:40:25.620Z,5.59
2023-04-08T02:42:55.002Z,5.53
2023-04-08T02:45:27.455Z,5.51
2023-04-08T02:47:57.816Z,5.42
2023-04-08T02:50:37.825Z,5.32
2023-04-08T02:53:05.952Z,5.20
2023-04-08T02:55:33.536Z,5.13
2023-04-08T02:58:00.186Z,5.18
2023-04-08T03:00:27.479Z,5.16
2023-04-08T03:02:59.674Z,5.12
2023-04-08T03:05:26.912Z,5.16
2023-04-08T03:07:53.641Z,5.15
2023-04-08T03:10:24.642Z,5.14
2023-04-08T03:12:55.013Z,5.11
2023-04-08T03:15:21.796Z,5.00
2023-04-08T03:17:48.646Z,4.87
2023-04-08T03:20:15.439Z,5.02
2023-04-08T03:22:42.359Z,4.94
2023-04-08T03:25:09.788Z,4.95
2023-04-08T03:27:36.646Z,4.80
2023-04-08T03:30:03.991Z,4.73
2023-04-08T03:32:30.861Z,4.89
2023-04-08T03:34:58.379Z,4.57
2023-04-08T03:37:25.780Z,4.92
2023-04-08T03:39:56.009Z,4.74
2023-04-08T03:42:25.403Z,4.94
2023-04-08T03:44:52.027Z,4.87
2023-04-08T03:47:21.553Z,4.89
2023-04-08T03:49:48.444Z,4.82
2023-04-08T03:52:17.301Z,4.93
2023-04-08T03:54:45.107Z,4.89
2023-04-08T03:57:12.430Z,4.75
2023-04-08T03:59:42.232Z,4.82
2023-04-08T04:02:09.048Z,4.76
2023-04-08T04:04:37.124Z,4.77
2023-04-08T04:07:05.883Z,4.71
2023-04-08T04:09:32.777Z,4.61
2023-04-08T04:12:02.098Z,4.70
2023-04-08T04:14:29.551Z,4.69
2023-04-08T04:16:56.397Z,4.69
2023-04-08T04:19:23.520Z,4.59
2023-04-08T04:21:52.852Z,4.72
2023-04-08T04:24:19.652Z,4.56
2023-04-08T04:26:47.025Z,4.60
2023-04-08T04:29:14.086Z,4.65
2023-04-08T04:31:44.737Z,4.61
2023-04-08T04:34:11.670Z,4.66
2023-04-08T04:36:38.188Z,4.68
2023-04-08T04:39:04.943Z,4.67
2023-04-08T04:41:31.713Z,4.42
2023-04-08T04:43:59.227Z,4.01
2023-04-08T04:46:28.934Z,4.25
2023-04-08T04:48:57.751Z,4.46
2023-04-08T04:51:26.585Z,4.42
2023-04-08T04:53:53.519Z,4.16
2023-04-08T04:56:21.938Z,4.29
2023-04-08T04:58:51.681Z,4.22
2023-04-08T05:01:22.114Z,4.27
2023-04-08T05:03:49.772Z,4.28
2023-04-08T05:06:19.187Z,4.26
2023-04-08T05:08:45.874Z,4.31
2023-04-08T05:11:13.583Z,4.31
2023-04-08T05:13:45.405Z,4.29
2023-04-08T05:16:15.260Z,4.22
2023-04-08T05:18:41.916Z,4.22
2023-04-08T05:21:12.218Z,4.04
2023-04-08T05:23:48.446Z,4.15
2023-04-08T05:26:21.634Z,4.09
2023-04-08T05:28:49.943Z,3.97
2023-04-08T05:31:38.895Z,3.67
2023-04-08T05:34:09.308Z,4.22
2023-04-08T05:36:41.368Z,3.97
2023-04-08T05:39:09.605Z,4.14
2023-04-08T05:41:41.683Z,4.39
2023-04-08T05:44:12.488Z,4.22
2023-04-08T05:46:38.995Z,4.37
2023-04-08T05:49:05.566Z,4.52
2023-04-08T05:51:33.551Z,4.56
2023-04-08T05:54:00.621Z,4.60
2023-04-08T05:56:35.542Z,4.69
2023-04-08T05:59:03.328Z,4.78
2023-04-08T06:01:41.910Z,4.84
2023-04-08T06:04:09.329Z,4.93
2023-04-08T06:09:21.758Z,5.18
2023-04-08T06:11:50.744Z,5.29
2023-04-08T06:14:22.881Z,5.15
2023-04-08T06:16:51.211Z,5.34
2023-04-08T06:19:21.613Z,5.52
2023-04-08T06:21:52.476Z,5.72
2023-04-08T06:24:20.550Z,5.47
2023-04-08T06:26:50.009Z,5.40
2023-04-08T06:29:19.298Z,5.96
2023-04-08T06:31:46.252Z,6.02
2023-04-08T06:34:13.005Z,5.71
2023-04-08T06:36:40.217Z,6.07
2023-04-08T06:41:45.857Z,6.02
2023-04-08T06:44:12.838Z,6.35
2023-04-08T06:46:39.390Z,6.19
2023-04-08T06:49:07.453Z,6.35
2023-04-08T06:51:36.240Z,6.53
2023-04-08T06:54:06.374Z,6.28
2023-04-08T06:56:32.964Z,6.65
2023-04-08T06:59:00.338Z,6.59
2023-04-08T07:01:28.934Z,6.49
2023-04-08T07:04:01.407Z,6.66
2023-04-08T07:06:34.712Z,6.60
2023-04-08T07:09:08.230Z,6.81
2023-04-08T07:11:37.220Z,6.96
2023-04-08T07:14:03.901Z,7.14
2023-04-08T07:16:30.821Z,7.30
2023-04-08T07:18:58.455Z,7.29
2023-04-08T07:21:27.078Z,7.54
2023-04-08T07:23:54.342Z,7.67
2023-04-08T07:26:22.679Z,7.84
2023-04-08T07:28:49.872Z,7.85
2023-04-08T07:31:18.761Z,8.23
2023-04-08T07:33:47.106Z,8.41
2023-04-08T07:36:17.202Z,8.55
2023-04-08T07:38:43.964Z,8.72
2023-04-08T07:41:12.785Z,8.83
2023-04-08T07:43:41.210Z,8.93
2023-04-08T07:46:09.290Z,8.99
2023-04-08T07:51:20.965Z,8.87
2023-04-08T07:53:47.827Z,8.92
2023-04-08T07:56:15.931Z,8.71
2023-04-08T08:01:29.034Z,8.67
2023-04-08T08:04:09.561Z,8.67
2023-04-08T08:06:38.828Z,8.61
2023-04-08T08:09:07.964Z,8.62
2023-04-08T08:11:39.803Z,8.73
2023-04-08T08:14:06.624Z,8.85
2023-04-08T08:16:41.121Z,8.78
2023-04-08T08:19:15.813Z,8.71
2023-04-08T08:21:44.020Z,8.69
2023-04-08T08:24:12.881Z,8.70
2023-04-08T08:26:41.969Z,8.62
2023-04-08T08:32:23.897Z,8.57
2023-04-08T08:34:54.689Z,8.51
2023-04-08T08:38:03.529Z,7.91
2023-04-08T08:40:38.931Z,8.04
2023-04-08T08:43:44.088Z,8.29
2023-04-08T08:49:01.211Z,8.05
2023-04-08T08:51:30.220Z,7.58
2023-04-08T08:53:58.019Z,7.98
2023-04-08T08:56:24.889Z,8.06
2023-04-08T08:58:51.753Z,8.07
2023-04-08T09:05:15.193Z,7.93
2023-04-08T09:07:47.810Z,8.19
2023-04-08T09:10:17.394Z,8.57
2023-04-08T09:13:01.576Z,8.33
2023-04-08T09:15:28.708Z,8.48
2023-04-08T09:21:00.182Z,8.74
2023-04-08T09:23:53.968Z,8.99
2023-04-08T09:26:30.182Z,9.06
2023-04-08T09:29:26.436Z,8.81
2023-04-08T09:32:04.673Z,9.32
2023-04-08T09:34:38.872Z,9.47
2023-04-08T09:37:15.185Z,9.63
2023-04-08T09:39:41.953Z,9.70
2023-04-08T09:42:14.250Z,9.74
2023-04-08T09:44:48.253Z,9.72
2023-04-08T09:47:29.491Z,9.71
2023-04-08T09:53:03.634Z,9.78
2023-04-08T09:55:34.461Z,9.95
2023-04-08T09:58:12.019Z,9.98
2023-04-08T10:00:46.471Z,10.34
2023-04-08T10:03:43.037Z,10.44
2023-04-08T10:06:12.469Z,10.62
2023-04-08T10:08:40.165Z,10.89
2023-04-08T10:11:07.459Z,10.87
2023-04-08T10:13:41.275Z,10.80
2023-04-08T10:16:38.650Z,10.90
2023-04-08T10:19:45.046Z,10.90
2023-04-08T10:22:34.064Z,11.01
2023-04-08T10:25:17.106Z,10.98
2023-04-08T10:27:48.808Z,10.99
2023-04-08T10:30:35.640Z,10.99
2023-04-08T10:33:07.403Z,10.90
2023-04-08T10:35:43.039Z,10.86
2023-04-08T10:38:13.018Z,10.81
2023-04-08T10:40:46.102Z,11.28
2023-04-08T10:43:22.555Z,11.28
2023-04-08T10:46:00.485Z,11.22
2023-04-08T10:48:29.478Z,11.41
2023-04-08T10:51:03.360Z,11.34
2023-04-08T10:53:42.029Z,11.43
2023-04-08T10:56:09.916Z,11.79
2023-04-08T10:58:47.548Z,11.73
2023-04-08T11:01:15.635Z,11.41
2023-04-08T11:03:58.326Z,11.85
2023-04-08T11:06:33.195Z,11.75
2023-04-08T11:09:05.025Z,11.21
2023-04-08T11:11:35.402Z,11.75
2023-04-08T11:14:02.625Z,11.56
2023-04-08T11:16:33.178Z,11.66
2023-04-08T11:21:41.274Z,12.09
2023-04-08T11:24:15.046Z,12.29
2023-04-08T11:26:54.223Z,12.53
2023-04-08T11:29:23.435Z,12.69
2023-04-08T11:31:53.739Z,12.49
2023-04-08T11:34:29.145Z,12.34
2023-04-08T11:37:08.775Z,12.03
2023-04-08T11:39:46.720Z,11.89
2023-04-08T11:45:20.135Z,11.49
2023-04-08T11:47:53.300Z,11.58
2023-04-08T11:50:27.576Z,11.43
2023-04-08T11:52:55.532Z,11.25
2023-04-08T11:55:30.430Z,11.21
2023-04-08T11:58:03.152Z,10.95
2023-04-08T12:00:40.849Z,11.08
2023-04-08T12:03:11.652Z,11.10
2023-04-08T12:05:42.172Z,11.40
2023-04-08T12:08:10.062Z,11.52
2023-04-08T12:10:38.552Z,11.73
2023-04-08T12:13:08.341Z,11.91
2023-04-08T12:15:35.625Z,12.15
2023-04-08T12:18:02.708Z,12.50
2023-04-08T12:20:32.574Z,12.65
2023-04-08T12:22:59.830Z,12.89
2023-04-08T12:25:30.037Z,12.65
2023-04-08T12:27:59.672Z,12.09
2023-04-08T12:30:29.465Z,11.72
2023-04-08T12:33:09.694Z,11.73
2023-04-08T12:35:37.485Z,11.67
2023-04-08T12:38:05.150Z,11.46
2023-04-08T12:40:32.093Z,11.89
2023-04-08T12:43:12.682Z,12.01
2023-04-08T12:45:39.686Z,12.10
2023-04-08T12:48:22.474Z,12.64
2023-04-08T12:50:51.025Z,13.05
2023-04-08T12:53:17.873Z,13.21
2023-04-08T12:55:45.071Z,13.06
2023-04-08T12:58:11.827Z,13.24
2023-04-08T13:00:43.684Z,12.83
2023-04-08T13:03:10.644Z,13.36
2023-04-08T13:05:43.120Z,13.30
2023-04-08T13:08:12.529Z,13.04
2023-04-08T13:10:43.726Z,12.89
2023-04-08T13:15:58.581Z,12.81
2023-04-08T13:18:28.235Z,12.88
2023-04-08T13:21:01.086Z,12.83
2023-04-08T13:23:28.727Z,12.99
2023-04-08T13:26:01.164Z,12.75
2023-04-08T13:28:27.827Z,12.65
2023-04-08T13:30:56.639Z,12.60
2023-04-08T13:33:23.339Z,12.65
2023-04-08T13:35:53.054Z,12.33
2023-04-08T13:38:27.390Z,12.25
2023-04-08T13:40:59.869Z,12.05
2023-04-08T13:43:33.428Z,12.08
2023-04-08T13:46:02.459Z,12.18
2023-04-08T13:48:31.140Z,11.99
2023-04-08T13:50:57.983Z,11.86
2023-04-08T13:53:25.906Z,12.18
2023-04-08T13:55:56.442Z,12.05
2023-04-08T13:58:24.791Z,12.21
2023-04-08T14:01:02.171Z,12.27
2023-04-08T14:03:33.236Z,12.24
2023-04-08T14:06:06.746Z,12.32
2023-04-08T14:08:39.574Z,12.42
2023-04-08T14:11:29.809Z,12.24
2023-04-08T14:14:06.757Z,12.19
2023-04-08T14:16:42.325Z,12.17
2023-04-08T14:19:18.163Z,12.14
2023-04-08T14:21:51.274Z,11.89
2023-04-08T14:24:18.432Z,11.91
2023-04-08T14:26:56.593Z,12.07
2023-04-08T14:29:26.461Z,11.87
2023-04-08T14:31:53.765Z,11.81
2023-04-08T14:34:22.694Z,11.76
2023-04-08T14:36:49.915Z,11.81
2023-04-08T14:39:17.535Z,11.59
2023-04-08T14:41:51.899Z,11.85
2023-04-08T14:44:20.263Z,11.75
2023-04-08T14:46:50.601Z,11.86
2023-04-08T14:49:26.929Z,11.98
2023-04-08T14:51:54.703Z,12.02
2023-04-08T14:54:25.139Z,12.00
2023-04-08T14:56:51.895Z,12.09
2023-04-08T14:59:20.511Z,12.12
2023-04-08T15:01:49.114Z,12.15
2023-04-08T15:04:16.111Z,12.02
2023-04-08T15:06:44.554Z,12.26
2023-04-08T15:09:12.400Z,12.14
2023-04-08T15:11:44.983Z,11.96
2023-04-08T15:14:16.962Z,11.79
2023-04-08T15:16:44.667Z,11.83
2023-04-08T15:19:12.470Z,11.58
2023-04-08T15:21:41.991Z,11.63
2023-04-08T15:24:11.566Z,11.91
2023-04-08T15:26:41.373Z,12.02
2023-04-08T15:29:15.953Z,11.91
2023-04-08T15:31:45.581Z,12.40
2023-04-08T15:34:12.715Z,12.53
2023-04-08T15:36:41.229Z,12.44
2023-04-08T15:39:08.504Z,12.70
2023-04-08T15:41:35.280Z,12.96
2023-04-08T15:44:04.985Z,12.74
2023-04-08T15:46:37.463Z,12.33
2023-04-08T15:49:06.599Z,12.70
2023-04-08T15:52:21.370Z,12.13
2023-04-08T15:55:16.891Z,12.31
2023-04-08T15:57:44.441Z,11.90
2023-04-08T16:00:16.587Z,12.29
2023-04-08T16:02:43.757Z,11.95
2023-04-08T16:05:14.011Z,12.20
2023-04-08T16:10:33.747Z,11.89
2023-04-08T16:13:01.476Z,12.01
2023-04-08T16:15:51.397Z,12.05
2023-04-08T16:18:21.745Z,11.85
2023-04-08T16:21:04.087Z,11.98
2023-04-08T16:23:42.177Z,11.74
2023-04-08T16:26:12.493Z,11.67
2023-04-08T16:28:57.817Z,11.65
2023-04-08T16:34:35.343Z,11.69
2023-04-08T16:37:05.503Z,11.63
2023-04-08T16:42:13.418Z,11.62
2023-04-08T16:47:48.351Z,11.09
2023-04-08T16:53:07.134Z,11.52
2023-04-08T16:55:50.030Z,11.47
2023-04-08T16:58:44.524Z,11.30
2023-04-08T17:01:17.340Z,11.43
2023-04-08T17:03:58.414Z,11.37
2023-04-08T17:06:25.286Z,11.32
2023-04-08T17:08:54.458Z,11.29
2023-04-08T17:11:25.580Z,11.19
2023-04-08T17:16:49.724Z,11.19
2023-04-08T17:25:14.073Z,11.17
2023-04-08T17:27:53.951Z,11.13
2023-04-08T17:30:28.107Z,10.90
2023-04-08T17:32:59.082Z,11.07
2023-04-08T17:35:37.521Z,10.68
2023-04-08T17:38:14.088Z,10.89
2023-04-08T17:40:46.206Z,10.92
2023-04-08T17:43:23.704Z,10.54
2023-04-08T17:45:59.053Z,10.74
2023-04-08T17:48:27.297Z,10.80
2023-04-08T17:51:04.271Z,10.75
2023-04-08T17:53:36.375Z,10.72
2023-04-08T17:56:07.181Z,10.52
2023-04-08T17:58:38.162Z,10.63
2023-04-08T18:01:16.261Z,10.14
2023-04-08T18:06:29.835Z,10.38
2023-04-08T18:09:01.662Z,10.52
2023-04-08T18:11:28.888Z,10.24
2023-04-08T18:13:57.767Z,10.18
2023-04-08T18:16:30.496Z,10.48
2023-04-08T18:19:00.475Z,10.36
2023-04-08T18:24:34.517Z,10.08
2023-04-08T18:29:47.857Z,10.03
2023-04-08T18:38:41.261Z,10.24
2023-04-08T18:44:12.392Z,10.08
2023-04-08T18:47:31.318Z,10.10
2023-04-08T18:49:59.237Z,9.78
2023-04-08T18:55:12.155Z,9.73
2023-04-08T18:57:59.538Z,10.03
2023-04-08T19:00:36.838Z,9.72
2023-04-08T19:03:05.864Z,10.01
2023-04-08T19:05:53.251Z,9.96
2023-04-08T19:08:26.386Z,9.89
2023-04-08T19:11:01.545Z,9.87
2023-04-08T19:13:28.428Z,9.54
2023-04-08T19:16:16.573Z,9.69
2023-04-08T19:18:49.345Z,9.79
2023-04-08T19:21:23.023Z,9.75
2023-04-08T19:23:56.460Z,9.20
2023-04-08T19:26:28.250Z,9.45
2023-04-08T19:28:59.464Z,9.66
2023-04-08T19:31:29.730Z,9.63
2023-04-08T19:33:56.690Z,9.25
2023-04-08T19:36:27.221Z,9.55
2023-04-08T19:38:55.713Z,9.55
2023-04-08T19:41:24.008Z,9.52
2023-04-08T19:43:53.576Z,9.21
2023-04-08T19:46:23.665Z,9.44
2023-04-08T19:48:50.844Z,9.45
2023-04-08T19:51:20.369Z,9.39
2023-04-08T19:53:51.959Z,9.01
2023-04-08T19:56:18.695Z,9.20
2023-04-08T19:58:51.509Z,9.28
2023-04-08T20:01:23.035Z,9.09
2023-04-08T20:03:54.559Z,9.22
2023-04-08T20:06:26.702Z,9.16
2023-04-08T20:09:05.779Z,8.54
2023-04-08T20:11:34.069Z,9.07
2023-04-08T20:14:05.752Z,8.48
2023-04-08T20:16:38.456Z,8.99
2023-04-08T20:19:05.165Z,8.78
2023-04-08T20:21:35.453Z,8.95
2023-04-08T20:24:03.180Z,8.63
2023-04-08T20:26:34.775Z,8.80
2023-04-08T20:29:12.609Z,8.71
2023-04-08T20:31:41.900Z,8.60
2023-04-08T20:34:20.402Z,8.72
2023-04-08T20:36:48.786Z,8.36
2023-04-08T20:39:20.246Z,8.62
2023-04-08T20:41:57.648Z,8.16
2023-04-08T20:44:26.005Z,8.57
2023-04-08T20:47:02.104Z,8.24
2023-04-08T20:49:36.554Z,8.03
2023-04-08T20:52:06.986Z,8.24
2023-04-08T20:54:39.202Z,8.51
2023-04-08T20:57:08.391Z,8.34
2023-04-08T20:59:35.054Z,8.31
2023-04-08T21:02:05.003Z,8.44
2023-04-08T21:04:34.847Z,8.47
2023-04-08T21:07:04.443Z,7.98
2023-04-08T21:09:31.323Z,8.51
2023-04-08T21:11:58.363Z,8.36
2023-04-08T21:14:26.413Z,8.46
2023-04-08T21:16:55.334Z,8.47
2023-04-08T21:19:25.624Z,8.08
2023-04-08T21:21:53.441Z,7.77
2023-04-08T21:24:23.953Z,8.03
2023-04-08T21:26:53.818Z,8.04
2023-04-08T21:29:21.209Z,8.38
2023-04-08T21:31:51.137Z,7.92
2023-04-08T21:34:18.514Z,8.33
2023-04-08T21:36:45.184Z,8.27
2023-04-08T21:39:12.109Z,8.24
2023-04-08T21:41:43.449Z,8.23
2023-04-08T21:44:12.871Z,8.21
2023-04-08T21:46:41.761Z,8.20
2023-04-08T21:49:11.618Z,8.05
2023-04-08T21:54:20.440Z,8.17
2023-04-08T21:56:47.828Z,7.72
2023-04-08T21:59:19.722Z,8.18
2023-04-08T22:01:47.461Z,8.12
2023-04-08T22:04:14.591Z,7.93
2023-04-08T22:06:46.461Z,7.85
2023-04-08T22:09:15.183Z,7.85
2023-04-08T22:11:46.303Z,7.98
2023-04-08T22:14:14.270Z,7.83
2023-04-08T22:16:43.737Z,8.11
2023-04-08T22:19:11.235Z,8.14
2023-04-08T22:21:45.234Z,7.88
2023-04-08T22:24:12.553Z,7.84
2023-04-08T22:26:40.352Z,8.02
2023-04-08T22:29:10.450Z,7.75
2023-04-08T22:31:47.802Z,7.89
2023-04-08T22:34:14.930Z,7.57
2023-04-08T22:36:42.430Z,7.76
2023-04-08T22:39:09.381Z,7.75
2023-04-08T22:41:37.121Z,8.09
2023-04-08T22:44:05.661Z,7.90
2023-04-08T22:46:33.712Z,7.90
2023-04-08T22:49:00.751Z,7.91
2023-04-08T22:51:27.332Z,8.00
2023-04-08T22:53:54.948Z,8.16
2023-04-08T22:56:23.258Z,8.01
2023-04-08T22:58:51.181Z,7.95
2023-04-08T23:01:20.965Z,7.93
2023-04-08T23:03:47.926Z,8.08
2023-04-08T23:06:23.292Z,8.06
2023-04-08T23:08:55.314Z,7.73
2023-04-08T23:11:24.107Z,7.89
2023-04-08T23:13:51.093Z,7.89
2023-04-08T23:16:19.366Z,7.74
2023-04-08T23:18:48.051Z,7.96
2023-04-08T23:21:14.924Z,7.43
2023-04-08T23:23:43.464Z,7.74
2023-04-08T23:26:23.030Z,7.58
2023-04-08T23:28:53.826Z,7.79
2023-04-08T23:31:25.577Z,7.69
2023-04-08T23:33:55.903Z,7.52
2023-04-08T23:36:24.695Z,7.49
2023-04-08T23:38:51.934Z,7.51
2023-04-08T23:41:21.509Z,7.81
2023-04-08T23:43:51.402Z,7.71
2023-04-08T23:46:22.158Z,7.71
2023-04-08T23:48:49.013Z,7.78
2023-04-08T23:51:17.296Z,7.67
2023-04-08T23:53:48.247Z,7.47
2023-04-08T23:56:15.905Z,7.50
2023-04-08T23:58:48.510Z,7.11
